createdAt,value
2024-05-09T00:01:08.221Z,98829.00
2024-05-09T00:05:12.307Z,98826.00
2024-05-09T00:09:13.481Z,98836.00
2024-05-09T00:13:14.712Z,98834.00
2024-05-09T00:17:15.972Z,98830.00
2024-05-09T00:21:17.207Z,98827.00
2024-05-09T00:25:18.174Z,98830.00
2024-05-09T00:29:19.226Z,98827.00
2024-05-09T00:33:20.674Z,98822.00
2024-05-09T00:37:21.974Z,98826.00
2024-05-09T00:41:23.075Z,98819.00
2024-05-09T00:45:24.018Z,98822.00
2024-05-09T00:49:26.121Z,98815.00
2024-05-09T00:53:27.787Z,98815.00
2024-05-09T00:57:29.203Z,98811.00
2024-05-09T01:01:30.948Z,98814.00
2024-05-09T01:05:33.679Z,98813.00
2024-05-09T01:09:34.823Z,98804.00
2024-05-09T01:13:35.920Z,98806.00
2024-05-09T01:17:37.344Z,98808.00
2024-05-09T01:21:40.790Z,98807.00
2024-05-09T01:25:42.028Z,98815.00
2024-05-09T01:29:43.106Z,98804.00
2024-05-09T01:33:44.394Z,98805.00
2024-05-09T01:37:45.600Z,98813.00
2024-05-09T01:41:46.542Z,98801.00
2024-05-09T01:45:47.548Z,98792.00
2024-05-09T01:49:48.694Z,98797.00
2024-05-09T01:53:49.831Z,98785.00
2024-05-09T01:57:51.018Z,98795.00
2024-05-09T02:01:56.852Z,98803.00
2024-05-09T02:05:55.016Z,98788.00
2024-05-09T02:09:55.955Z,98794.00
2024-05-09T02:13:57.088Z,98788.00
2024-05-09T02:17:58.294Z,98815.00
2024-05-09T02:21:59.464Z,98793.00
2024-05-09T02:26:00.767Z,98798.00
2024-05-09T02:30:01.792Z,98794.00
2024-05-09T02:34:03.236Z,98809.00
2024-05-09T02:38:04.438Z,98799.00
2024-05-09T02:42:05.481Z,98796.00
2024-05-09T02:46:06.893Z,98799.00
2024-05-09T02:50:08.423Z,98787.00
2024-05-09T02:54:10.001Z,98791.00
2024-05-09T02:58:11.671Z,98788.00
2024-05-09T03:02:13.102Z,98804.00
2024-05-09T03:06:14.166Z,98802.00
2024-05-09T03:10:22.225Z,98803.00
2024-05-09T03:14:18.472Z,98827.00
2024-05-09T03:18:19.685Z,98803.00
2024-05-09T03:22:20.681Z,98792.00
2024-05-09T03:26:21.754Z,98799.00
2024-05-09T03:30:36.058Z,98800.00
2024-05-09T03:34:30.902Z,98793.00
2024-05-09T03:38:38.993Z,98795.00
2024-05-09T03:42:41.143Z,98798.00
2024-05-09T03:46:42.088Z,98802.00
2024-05-09T03:50:43.341Z,98805.00
2024-05-09T03:54:47.961Z,98795.00
2024-05-09T03:58:49.154Z,98799.00
2024-05-09T04:02:50.333Z,98800.00
2024-05-09T04:06:51.295Z,98798.00
2024-05-09T04:10:52.417Z,98825.00
2024-05-09T04:14:53.373Z,98800.00
2024-05-09T04:18:54.456Z,98802.00
2024-05-09T04:22:55.639Z,98801.00
2024-05-09T04:26:56.748Z,98816.00
2024-05-09T04:30:57.967Z,98811.00
2024-05-09T04:34:58.953Z,98811.00
2024-05-09T04:39:00.039Z,98812.00
2024-05-09T04:43:01.025Z,98813.00
2024-05-09T04:47:02.130Z,98817.00
2024-05-09T04:51:05.691Z,98820.00
2024-05-09T04:55:06.852Z,98821.00
2024-05-09T04:59:07.895Z,98817.00
2024-05-09T05:03:13.200Z,98821.00
2024-05-09T05:07:13.628Z,98818.00
2024-05-09T05:11:14.724Z,98811.00
2024-05-09T05:15:15.884Z,98835.00
2024-05-09T05:19:17.744Z,98826.00
2024-05-09T05:23:20.179Z,98826.00
2024-05-09T05:27:21.345Z,98822.00
2024-05-09T05:31:22.354Z,98830.00
2024-05-09T05:35:23.512Z,98830.00
2024-05-09T05:39:24.760Z,98826.00
2024-05-09T05:43:26.339Z,98829.00
2024-05-09T05:47:27.409Z,98829.00
2024-05-09T05:51:28.577Z,98832.00
2024-05-09T05:55:29.704Z,98854.00
2024-05-09T05:59:30.689Z,98846.00
2024-05-09T06:03:31.873Z,98849.00
2024-05-09T06:07:33.085Z,98846.00
2024-05-09T06:11:34.150Z,98846.00
2024-05-09T06:15:35.200Z,98854.00
2024-05-09T06:19:36.307Z,98854.00
2024-05-09T06:23:46.981Z,98854.00
2024-05-09T06:27:48.808Z,98856.00
2024-05-09T06:31:50.262Z,98849.00
2024-05-09T06:35:53.293Z,98864.00
2024-05-09T06:39:54.339Z,98856.00
2024-05-09T06:43:55.350Z,98859.00
2024-05-09T06:47:56.566Z,98863.00
2024-05-09T06:51:57.579Z,98865.00
2024-05-09T06:55:58.689Z,98864.00
2024-05-09T06:59:59.975Z,98864.00
2024-05-09T07:04:01.188Z,98865.00
2024-05-09T07:08:03.751Z,98865.00
2024-05-09T07:12:06.034Z,98860.00
2024-05-09T07:16:07.186Z,98866.00
2024-05-09T07:20:16.184Z,98876.00
2024-05-09T07:24:13.106Z,98871.00
2024-05-09T07:28:19.157Z,98865.00
2024-05-09T07:32:20.382Z,98861.00
2024-05-09T07:36:21.565Z,98859.00
2024-05-09T07:40:32.300Z,98854.00
2024-05-09T07:44:25.737Z,98853.00
2024-05-09T07:50:00.622Z,98855.00
2024-05-09T07:53:32.576Z,98849.00
2024-05-09T07:56:32.815Z,98852.00
2024-05-09T08:00:34.270Z,98858.00
2024-05-09T08:04:35.491Z,98847.00
2024-05-09T08:08:36.514Z,98853.00
2024-05-09T08:12:37.642Z,98849.00
2024-05-09T08:16:38.720Z,98850.00
2024-05-09T08:20:41.308Z,98855.00
2024-05-09T08:24:42.555Z,98854.00
2024-05-09T08:28:43.525Z,98840.00
2024-05-09T08:32:46.606Z,98842.00
2024-05-09T08:36:47.968Z,98841.00
2024-05-09T08:40:49.967Z,98835.00
2024-05-09T08:44:51.583Z,98829.00
2024-05-09T08:48:55.784Z,98830.00
2024-05-09T08:52:56.964Z,98828.00
2024-05-09T08:56:59.894Z,98836.00
2024-05-09T09:01:03.325Z,98842.00
2024-05-09T09:05:12.219Z,98833.00
2024-05-09T09:09:13.838Z,98836.00
2024-05-09T09:13:14.923Z,98828.00
2024-05-09T09:17:16.837Z,98825.00
2024-05-09T09:21:17.876Z,98835.00
2024-05-09T09:25:20.300Z,98833.00
2024-05-09T09:29:21.799Z,98831.00
2024-05-09T09:33:23.055Z,98830.00
2024-05-09T09:37:28.568Z,98757.00
2024-05-09T09:41:32.071Z,98835.00
2024-05-09T09:45:35.752Z,98829.00
2024-05-09T09:49:37.436Z,98826.00
2024-05-09T09:53:39.216Z,98826.00
2024-05-09T09:57:43.071Z,98819.00
2024-05-09T10:01:45.508Z,98823.00
2024-05-09T10:05:47.557Z,98808.00
2024-05-09T10:09:48.856Z,98818.00
2024-05-09T10:13:50.866Z,98823.00
2024-05-09T10:17:52.117Z,98803.00
2024-05-09T10:22:03.469Z,98816.00
2024-05-09T10:26:05.907Z,98817.00
2024-05-09T10:30:14.374Z,98821.00
2024-05-09T10:34:18.672Z,98811.00
2024-05-09T10:38:20.111Z,98807.00
2024-05-09T10:42:21.497Z,98797.00
2024-05-09T10:46:23.699Z,98799.00
2024-05-09T10:50:28.931Z,98796.00
2024-05-09T10:54:58.081Z,98793.00
2024-05-09T10:58:59.016Z,98792.00
2024-05-09T11:03:00.462Z,98793.00
2024-05-09T11:07:08.355Z,98795.00
2024-05-09T11:11:10.257Z,98793.00
2024-05-09T11:15:11.362Z,98787.00
2024-05-09T11:19:13.579Z,98779.00
2024-05-09T11:23:14.896Z,98774.00
2024-05-09T11:27:15.885Z,98781.00
2024-05-09T11:31:17.391Z,98772.00
2024-05-09T11:35:18.990Z,98769.00
2024-05-09T11:39:20.132Z,98759.00
2024-05-09T11:43:21.354Z,98767.00
2024-05-09T11:47:22.588Z,98769.00
2024-05-09T11:51:23.808Z,98746.00
2024-05-09T11:55:28.014Z,98755.00
2024-05-09T11:59:28.353Z,98744.00
2024-05-09T12:03:29.432Z,98736.00
2024-05-09T12:07:30.691Z,98735.00
2024-05-09T12:11:31.690Z,98731.00
2024-05-09T12:15:34.804Z,98731.00
2024-05-09T12:19:36.310Z,98736.00
2024-05-09T12:23:37.415Z,98720.00
2024-05-09T12:27:39.497Z,98725.00
2024-05-09T12:31:40.499Z,98727.00
2024-05-09T12:35:44.194Z,98718.00
2024-05-09T12:39:44.431Z,98721.00
2024-05-09T12:43:45.518Z,98719.00
2024-05-09T12:47:46.866Z,98713.00
2024-05-09T12:51:48.113Z,98707.00
2024-05-09T12:55:56.707Z,98713.00
2024-05-09T12:59:52.885Z,98689.00
2024-05-09T13:03:54.279Z,98695.00
2024-05-09T13:07:55.830Z,98686.00
2024-05-09T13:11:56.993Z,98684.00
2024-05-09T13:15:58.192Z,98694.00
2024-05-09T13:19:59.322Z,98688.00
2024-05-09T13:24:00.527Z,98672.00
2024-05-09T13:28:02.637Z,98673.00
2024-05-09T13:32:04.334Z,98675.00
2024-05-09T13:36:06.558Z,98677.00
2024-05-09T13:40:12.004Z,98664.00
2024-05-09T13:44:10.951Z,98666.00
2024-05-09T13:48:12.551Z,98668.00
2024-05-09T13:52:13.964Z,98656.00
2024-05-09T13:56:15.037Z,98655.00
2024-05-09T14:00:27.392Z,98650.00
2024-05-09T14:04:19.352Z,98647.00
2024-05-09T14:08:21.055Z,98656.00
2024-05-09T14:12:22.094Z,98645.00
2024-05-09T14:16:23.275Z,98638.00
2024-05-09T14:20:30.886Z,98636.00
2024-05-09T14:24:27.252Z,98636.00
2024-05-09T14:28:28.452Z,98633.00
2024-05-09T14:32:29.580Z,98622.00
2024-05-09T14:36:32.685Z,98621.00
2024-05-09T14:44:36.512Z,98612.00
2024-05-09T14:48:37.698Z,98617.00
2024-05-09T14:52:38.787Z,98600.00
2024-05-09T14:56:40.799Z,98596.00
2024-05-09T15:00:46.075Z,98604.00
2024-05-09T15:04:45.248Z,98584.00
2024-05-09T15:08:50.173Z,98592.00
2024-05-09T15:12:51.143Z,98586.00
2024-05-09T15:16:52.377Z,98584.00
2024-05-09T15:20:53.526Z,98582.00
2024-05-09T15:24:54.487Z,98581.00
2024-05-09T15:28:55.519Z,98574.00
2024-05-09T15:32:56.653Z,98569.00
2024-05-09T15:36:58.473Z,98566.00
2024-05-09T15:40:59.522Z,98603.00
2024-05-09T15:45:00.650Z,98563.00
2024-05-09T15:49:02.001Z,98477.00
2024-05-09T15:53:03.423Z,98574.00
2024-05-09T15:57:04.863Z,98556.00
2024-05-09T16:01:06.169Z,98559.00
2024-05-09T16:05:07.564Z,98550.00
2024-05-09T16:09:08.919Z,98557.00
2024-05-09T16:13:10.056Z,98551.00
2024-05-09T16:17:11.467Z,98547.00
2024-05-09T16:21:12.446Z,98548.00
2024-05-09T16:25:13.751Z,98549.00
2024-05-09T16:29:14.943Z,98540.00
2024-05-09T16:33:18.335Z,98548.00
2024-05-09T16:37:19.859Z,98548.00
2024-05-09T16:41:21.155Z,98543.00
2024-05-09T16:45:22.144Z,98536.00
2024-05-09T16:49:23.687Z,98531.00
2024-05-09T16:53:25.858Z,98538.00
2024-05-09T16:57:26.931Z,98536.00
2024-05-09T17:01:30.020Z,98534.00
2024-05-09T17:05:31.429Z,98539.00
2024-05-09T17:09:32.628Z,98529.00
2024-05-09T17:13:35.588Z,98536.00
2024-05-09T17:17:37.357Z,98531.00
2024-05-09T17:21:38.543Z,98529.00
2024-05-09T17:25:39.851Z,98528.00
2024-05-09T17:29:41.366Z,98528.00
2024-05-09T17:33:42.617Z,98519.00
2024-05-09T17:37:43.752Z,98539.00
2024-05-09T17:41:44.910Z,98528.00
2024-05-09T17:45:46.274Z,98528.00
2024-05-09T17:49:47.423Z,98528.00
2024-05-09T17:53:48.492Z,98530.00
2024-05-09T17:57:49.980Z,98525.00
2024-05-09T18:01:51.255Z,98526.00
2024-05-09T18:05:52.468Z,98525.00
2024-05-09T18:09:53.626Z,98529.00
2024-05-09T18:13:55.751Z,98519.00
2024-05-09T18:17:57.170Z,98525.00
2024-05-09T18:21:58.327Z,98517.00
2024-05-09T18:25:59.464Z,98514.00
2024-05-09T18:30:00.723Z,98545.00
2024-05-09T18:34:02.099Z,98522.00
2024-05-09T18:38:04.295Z,98524.00
2024-05-09T18:42:05.372Z,98523.00
2024-05-09T18:46:07.058Z,98529.00
2024-05-09T18:50:14.636Z,98526.00
2024-05-09T18:54:12.130Z,98536.00
2024-05-09T18:58:13.392Z,98545.00
2024-05-09T19:02:14.727Z,98528.00
2024-05-09T19:06:16.173Z,98540.00
2024-05-09T19:10:22.601Z,98538.00
2024-05-09T19:14:20.394Z,98544.00
2024-05-09T19:18:21.752Z,98546.00
2024-05-09T19:22:22.857Z,98560.00
2024-05-09T19:26:24.677Z,98557.00
2024-05-09T19:30:34.558Z,98555.00
2024-05-09T19:34:28.948Z,98562.00
2024-05-09T19:38:30.310Z,98556.00
2024-05-09T19:42:31.586Z,98561.00
2024-05-09T19:46:32.654Z,98566.00
2024-05-09T19:50:41.236Z,98567.00
2024-05-09T19:54:36.567Z,98567.00
2024-05-09T19:58:38.128Z,98559.00
2024-05-09T20:02:39.428Z,98564.00
2024-05-09T20:06:40.958Z,98556.00
2024-05-09T20:10:42.352Z,98559.00
2024-05-09T20:14:43.751Z,98563.00
2024-05-09T20:18:45.066Z,98565.00
2024-05-09T20:22:46.092Z,98567.00
2024-05-09T20:26:47.216Z,98567.00
2024-05-09T20:30:48.645Z,98567.00
2024-05-09T20:34:50.893Z,98563.00
2024-05-09T20:38:51.905Z,98565.00
2024-05-09T20:42:52.870Z,98563.00
2024-05-09T20:46:53.873Z,98565.00
2024-05-09T20:50:54.961Z,98566.00
2024-05-09T20:54:56.057Z,98567.00
2024-05-09T20:58:57.641Z,98570.00
2024-05-09T21:02:58.929Z,98564.00
2024-05-09T21:07:00.067Z,98570.00
2024-05-09T21:11:01.515Z,98574.00
2024-05-09T21:15:02.912Z,98571.00
2024-05-09T21:19:03.968Z,98568.00
2024-05-09T21:23:05.016Z,98567.00
2024-05-09T21:27:06.048Z,98574.00
2024-05-09T21:31:08.272Z,98567.00
2024-05-09T21:35:09.408Z,98570.00
2024-05-09T21:39:10.547Z,98566.00
2024-05-09T21:43:11.837Z,98559.00
2024-05-09T21:47:13.026Z,98570.00
2024-05-09T21:51:14.669Z,98559.00
2024-05-09T21:55:15.983Z,98553.00
2024-05-09T21:59:17.158Z,98563.00
2024-05-09T22:03:18.219Z,98565.00
2024-05-09T22:07:19.513Z,98562.00
2024-05-09T22:11:20.498Z,98569.00
2024-05-09T22:15:21.592Z,98601.00
2024-05-09T22:19:22.691Z,98450.00
2024-05-09T22:23:23.958Z,98556.00
2024-05-09T22:27:25.184Z,98568.00
2024-05-09T22:31:26.198Z,98559.00
2024-05-09T22:35:27.402Z,98566.00
2024-05-09T22:39:28.363Z,98568.00
2024-05-09T22:43:29.386Z,98565.00
2024-05-09T22:47:30.526Z,98563.00
2024-05-09T22:51:32.481Z,98538.00
2024-05-09T22:55:33.429Z,98554.00
2024-05-09T22:59:34.526Z,98558.00
2024-05-09T23:03:37.973Z,98563.00
2024-05-09T23:07:39.037Z,98563.00
2024-05-09T23:11:41.317Z,98553.00
2024-05-09T23:15:42.277Z,98546.00
2024-05-09T23:19:43.323Z,98549.00
2024-05-09T23:23:44.375Z,98412.00
2024-05-09T23:27:45.391Z,98547.00
2024-05-09T23:31:46.472Z,98544.00
2024-05-09T23:35:47.417Z,98544.00
2024-05-09T23:39:48.468Z,98539.00
2024-05-09T23:43:49.864Z,98536.00
2024-05-09T23:47:51.380Z,98529.00
2024-05-09T23:51:52.671Z,98519.00
2024-05-09T23:55:53.824Z,98523.00
2024-05-09T23:59:56.397Z,98519.00
